createdAt,value
2023-09-12T00:00:30.837Z,96059.91
2023-09-12T00:02:02.626Z,96061.34
2023-09-12T00:03:35.278Z,96057.53
2023-09-12T00:05:07.736Z,96055.63
2023-09-12T00:06:39.465Z,96062.16
2023-09-12T00:08:11.234Z,96057.81
2023-09-12T00:09:42.919Z,96052.34
2023-09-12T00:11:16.083Z,96059.00
2023-09-12T00:12:47.983Z,96062.13
2023-09-12T00:14:19.739Z,96062.66
2023-09-12T00:15:51.550Z,96053.94
2023-09-12T00:17:23.417Z,96063.75
2023-09-12T00:18:55.135Z,96054.00
2023-09-12T00:20:26.903Z,96050.22
2023-09-12T00:21:58.642Z,96053.19
2023-09-12T00:23:30.536Z,96051.63
2023-09-12T00:25:02.773Z,96053.47
2023-09-12T00:26:35.974Z,96050.78
2023-09-12T00:28:07.809Z,96044.59
2023-09-12T00:29:39.585Z,96045.69
2023-09-12T00:31:11.441Z,96046.44
2023-09-12T00:32:43.301Z,96045.34
2023-09-12T00:34:17.037Z,96044.28
2023-09-12T00:35:48.742Z,96046.56
2023-09-12T00:37:20.518Z,96040.00
2023-09-12T00:38:52.395Z,96041.66
2023-09-12T00:40:24.366Z,96037.47
2023-09-12T00:41:57.553Z,96040.69
2023-09-12T00:43:29.299Z,96032.66
2023-09-12T00:45:01.121Z,96038.88
2023-09-12T00:46:33.012Z,96033.03
2023-09-12T00:48:05.696Z,96035.25
2023-09-12T00:49:37.564Z,96040.28
2023-09-12T00:51:09.330Z,96036.50
2023-09-12T00:52:41.069Z,96030.13
2023-09-12T00:54:12.900Z,96037.34
2023-09-12T00:55:46.995Z,96038.06
2023-09-12T00:57:20.233Z,96040.16
2023-09-12T00:58:52.779Z,96036.53
2023-09-12T01:00:24.666Z,96047.59
2023-09-12T01:01:58.487Z,96048.00
2023-09-12T01:03:30.304Z,96049.13
2023-09-12T01:05:02.198Z,96056.63
2023-09-12T01:06:34.017Z,96054.38
2023-09-12T01:08:06.167Z,96055.56
2023-09-12T01:09:39.672Z,96049.28
2023-09-12T01:11:11.416Z,96050.03
2023-09-12T01:12:44.808Z,96052.28
2023-09-12T01:14:16.609Z,96049.50
2023-09-12T01:15:48.436Z,96050.66
2023-09-12T01:17:20.219Z,96058.78
2023-09-12T01:18:52.358Z,96056.44
2023-09-12T01:20:26.902Z,96053.34
2023-09-12T01:22:23.182Z,96053.19
2023-09-12T01:24:02.205Z,96062.72
2023-09-12T01:25:42.471Z,96054.63
2023-09-12T01:27:20.765Z,96051.53
2023-09-12T01:28:53.123Z,96051.19
2023-09-12T01:30:24.918Z,96052.44
2023-09-12T01:31:56.618Z,96055.69
2023-09-12T01:33:28.456Z,96057.81
2023-09-12T01:35:00.326Z,96053.59
2023-09-12T01:36:32.154Z,96057.81
2023-09-12T01:38:04.362Z,96060.88
2023-09-12T01:39:36.234Z,96056.00
2023-09-12T01:41:08.008Z,96057.88
2023-09-12T01:42:43.242Z,96050.19
2023-09-12T01:44:15.019Z,96048.38
2023-09-12T01:45:47.339Z,96049.88
2023-09-12T01:47:19.346Z,96049.31
2023-09-12T01:48:52.579Z,96057.31
2023-09-12T01:50:24.404Z,96048.38
2023-09-12T01:51:56.099Z,96052.38
2023-09-12T01:53:27.892Z,96051.50
2023-09-12T01:54:59.593Z,96049.63
2023-09-12T01:56:31.432Z,96058.16
2023-09-12T01:58:04.846Z,96057.91
2023-09-12T01:59:36.567Z,96058.53
2023-09-12T02:01:08.254Z,96057.78
2023-09-12T02:02:39.949Z,96063.56
2023-09-12T02:04:11.663Z,96064.69
2023-09-12T02:05:43.484Z,96065.44
2023-09-12T02:07:15.248Z,96066.31
2023-09-12T02:08:46.956Z,96070.50
2023-09-12T02:10:18.724Z,96064.41
2023-09-12T02:11:50.700Z,96071.31
2023-09-12T02:13:23.755Z,96075.16
2023-09-12T02:14:55.572Z,96071.34
2023-09-12T02:16:27.403Z,96066.81
2023-09-12T02:17:59.189Z,96071.41
2023-09-12T02:19:30.871Z,96070.91
2023-09-12T02:21:02.749Z,96064.78
2023-09-12T02:22:34.680Z,96067.00
2023-09-12T02:24:07.312Z,96069.31
2023-09-12T02:25:41.060Z,96065.16
2023-09-12T02:27:15.189Z,96069.53
2023-09-12T02:28:48.330Z,96074.56
2023-09-12T02:30:20.164Z,96076.78
2023-09-12T02:31:51.941Z,96073.66
2023-09-12T02:33:23.862Z,96067.56
2023-09-12T02:34:58.132Z,96074.25
2023-09-12T02:36:29.929Z,96072.66
2023-09-12T02:38:01.836Z,96081.81
2023-09-12T02:39:33.627Z,96083.00
2023-09-12T02:41:05.476Z,96084.91
2023-09-12T02:42:37.452Z,96082.63
2023-09-12T02:44:10.531Z,96080.00
2023-09-12T02:45:42.372Z,96079.94
2023-09-12T02:47:14.207Z,96081.84
2023-09-12T02:48:46.320Z,96081.91
2023-09-12T02:50:18.708Z,96073.38
2023-09-12T02:51:50.460Z,96084.91
2023-09-12T02:53:22.222Z,96072.91
2023-09-12T02:54:53.920Z,96083.38
2023-09-12T02:56:25.764Z,96083.47
2023-09-12T02:57:57.728Z,96075.41
2023-09-12T02:59:31.858Z,96073.13
2023-09-12T03:01:04.765Z,96080.88
2023-09-12T03:02:36.689Z,96072.81
2023-09-12T03:04:08.640Z,96071.22
2023-09-12T03:05:40.532Z,96074.97
2023-09-12T03:07:12.327Z,96073.81
2023-09-12T03:08:44.917Z,96073.81
2023-09-12T03:10:16.940Z,96083.44
2023-09-12T03:11:48.729Z,96073.06
2023-09-12T03:13:22.908Z,96078.44
2023-09-12T03:14:56.208Z,96085.09
2023-09-12T03:16:28.219Z,96083.91
2023-09-12T03:18:00.001Z,96072.34
2023-09-12T03:19:31.726Z,96075.03
2023-09-12T03:21:03.884Z,96079.22
2023-09-12T03:22:38.777Z,96077.63
2023-09-12T03:24:10.616Z,96071.88
2023-09-12T03:25:42.376Z,96067.31
2023-09-12T03:27:14.107Z,96065.81
2023-09-12T03:28:45.943Z,96073.94
2023-09-12T03:30:19.292Z,96071.56
2023-09-12T03:31:51.188Z,96065.75
2023-09-12T03:33:22.992Z,96071.88
2023-09-12T03:34:54.933Z,96059.19
2023-09-12T03:36:26.953Z,96067.31
2023-09-12T03:37:58.711Z,96066.25
2023-09-12T03:39:30.532Z,96056.25
2023-09-12T03:41:02.827Z,96063.09
2023-09-12T03:42:42.091Z,96053.47
2023-09-12T03:44:14.741Z,96060.38
2023-09-12T03:45:47.965Z,96058.94
2023-09-12T03:47:19.769Z,96057.78
2023-09-12T03:48:51.682Z,96059.72
2023-09-12T03:50:23.613Z,96066.63
2023-09-12T03:51:55.480Z,96060.03
2023-09-12T03:53:30.124Z,96062.34
2023-09-12T03:55:02.088Z,96061.19
2023-09-12T03:56:34.113Z,96066.94
2023-09-12T03:58:05.970Z,96064.63
2023-09-12T03:59:37.801Z,96070.41
2023-09-12T04:01:11.000Z,96067.00
2023-09-12T04:02:42.815Z,96063.13
2023-09-12T04:04:14.805Z,96063.09
2023-09-12T04:05:47.462Z,96064.25
2023-09-12T04:07:19.495Z,96070.41
2023-09-12T04:08:51.264Z,96065.44
2023-09-12T04:10:23.076Z,96073.91
2023-09-12T04:11:55.073Z,96070.44
2023-09-12T04:13:28.087Z,96074.63
2023-09-12T04:14:59.935Z,96069.25
2023-09-12T04:16:33.223Z,96067.75
2023-09-12T04:18:05.485Z,96064.25
2023-09-12T04:19:37.545Z,96066.56
2023-09-12T04:21:11.465Z,96061.56
2023-09-12T04:22:43.354Z,96065.88
2023-09-12T04:24:17.077Z,96065.09
2023-09-12T04:25:48.980Z,96071.22
2023-09-12T04:27:23.322Z,96069.66
2023-09-12T04:28:55.114Z,96069.25
2023-09-12T04:30:27.415Z,96066.59
2023-09-12T04:32:00.817Z,96068.13
2023-09-12T04:33:32.870Z,96068.09
2023-09-12T04:35:05.470Z,96068.13
2023-09-12T04:36:37.410Z,96065.47
2023-09-12T04:38:09.439Z,96067.44
2023-09-12T04:39:41.218Z,96073.56
2023-09-12T04:41:16.133Z,96080.09
2023-09-12T04:42:48.106Z,96075.84
2023-09-12T04:44:19.958Z,96075.09
2023-09-12T04:45:51.766Z,96079.69
2023-09-12T04:47:25.067Z,96077.81
2023-09-12T04:48:56.876Z,96078.97
2023-09-12T04:50:28.869Z,96077.78
2023-09-12T04:52:00.807Z,96078.59
2023-09-12T04:53:35.883Z,96084.34
2023-09-12T04:55:08.218Z,96078.97
2023-09-12T04:56:40.039Z,96092.06
2023-09-12T04:58:11.753Z,96078.97
2023-09-12T04:59:43.938Z,96073.59
2023-09-12T05:01:15.794Z,96078.56
2023-09-12T05:02:49.130Z,96085.09
2023-09-12T05:04:21.373Z,96087.78
2023-09-12T05:05:53.269Z,96084.75
2023-09-12T05:07:25.376Z,96088.94
2023-09-12T05:08:57.127Z,96080.88
2023-09-12T05:10:28.902Z,96082.06
2023-09-12T05:12:00.666Z,96093.91
2023-09-12T05:13:32.455Z,96085.50
2023-09-12T05:15:04.808Z,96082.00
2023-09-12T05:16:36.708Z,96072.03
2023-09-12T05:18:10.051Z,96077.81
2023-09-12T05:19:42.226Z,96080.84
2023-09-12T05:21:13.975Z,96081.25
2023-09-12T05:22:45.812Z,96092.38
2023-09-12T05:24:17.762Z,96087.81
2023-09-12T05:25:50.003Z,96087.41
2023-09-12T05:27:21.894Z,96087.41
2023-09-12T05:28:53.961Z,96088.94
2023-09-12T05:30:25.799Z,96088.97
2023-09-12T05:31:57.491Z,96087.41
2023-09-12T05:33:32.683Z,96094.31
2023-09-12T05:35:18.904Z,96086.25
2023-09-12T05:36:52.814Z,96094.69
2023-09-12T05:38:24.522Z,96100.09
2023-09-12T05:39:56.129Z,96095.88
2023-09-12T05:41:27.819Z,96092.81
2023-09-12T05:42:59.567Z,96102.41
2023-09-12T05:44:32.497Z,96100.09
2023-09-12T05:46:05.367Z,96100.47
2023-09-12T05:47:37.341Z,96110.06
2023-09-12T05:49:10.538Z,96113.50
2023-09-12T05:50:42.616Z,96106.56
2023-09-12T05:52:14.451Z,96108.88
2023-09-12T05:53:46.194Z,96115.81
2023-09-12T05:55:17.964Z,96113.50
2023-09-12T05:56:49.914Z,96111.94
2023-09-12T05:58:21.701Z,96116.16
2023-09-12T05:59:53.458Z,96117.28
2023-09-12T06:01:25.202Z,96111.13
2023-09-12T06:02:57.137Z,96122.63
2023-09-12T06:04:30.402Z,96121.84
2023-09-12T06:06:03.981Z,96111.44
2023-09-12T06:07:36.103Z,96115.25
2023-09-12T06:09:09.988Z,96117.16
2023-09-12T06:10:41.964Z,96117.13
2023-09-12T06:12:13.765Z,96121.75
2023-09-12T06:13:45.433Z,96114.78
2023-09-12T06:15:17.406Z,96113.25
2023-09-12T06:16:49.393Z,96106.31
2023-09-12T06:18:21.497Z,96107.03
2023-09-12T06:19:55.488Z,96105.84
2023-09-12T06:21:27.246Z,96111.69
2023-09-12T06:23:00.621Z,96113.53
2023-09-12T06:24:32.366Z,96108.47
2023-09-12T06:26:04.231Z,96110.00
2023-09-12T06:27:36.092Z,96118.09
2023-09-12T06:29:07.930Z,96119.16
2023-09-12T06:30:39.746Z,96123.00
2023-09-12T06:32:11.432Z,96122.22
2023-09-12T06:33:43.160Z,96121.00
2023-09-12T06:35:16.653Z,96118.25
2023-09-12T06:36:48.426Z,96121.25
2023-09-12T06:38:20.151Z,96121.13
2023-09-12T06:39:52.266Z,96121.47
2023-09-12T06:41:27.324Z,96121.06
2023-09-12T06:42:59.201Z,96123.00
2023-09-12T06:44:30.820Z,96119.81
2023-09-12T06:46:02.678Z,96113.50
2023-09-12T06:47:34.369Z,96113.84
2023-09-12T06:49:06.689Z,96114.56
2023-09-12T06:50:40.042Z,96116.25
2023-09-12T06:52:11.957Z,96115.81
2023-09-12T06:53:43.971Z,96114.22
2023-09-12T06:55:16.190Z,96119.63
2023-09-12T06:56:47.944Z,96118.84
2023-09-12T06:58:19.962Z,96116.56
2023-09-12T06:59:51.785Z,96121.81
2023-09-12T07:01:23.688Z,96134.31
2023-09-12T07:02:55.813Z,96125.69
2023-09-12T07:04:28.393Z,96123.00
2023-09-12T07:06:01.677Z,96127.16
2023-09-12T07:07:34.282Z,96116.69
2023-09-12T07:09:06.268Z,96116.28
2023-09-12T07:10:37.945Z,96123.19
2023-09-12T07:12:09.710Z,96123.19
2023-09-12T07:13:42.116Z,96123.94
2023-09-12T07:15:15.206Z,96123.94
2023-09-12T07:16:46.897Z,96114.66
2023-09-12T07:18:19.471Z,96121.16
2023-09-12T07:19:52.267Z,96126.09
2023-09-12T07:21:25.337Z,96120.22
2023-09-12T07:22:57.173Z,96122.56
2023-09-12T07:24:28.923Z,96121.66
2023-09-12T07:26:00.795Z,96127.06
2023-09-12T07:27:32.952Z,96127.84
2023-09-12T07:29:06.591Z,96127.00
2023-09-12T07:30:38.290Z,96124.78
2023-09-12T07:32:09.999Z,96119.78
2023-09-12T07:33:42.720Z,96122.13
2023-09-12T07:35:14.953Z,96124.47
2023-09-12T07:36:47.985Z,96127.53
2023-09-12T07:38:20.951Z,96134.88
2023-09-12T07:39:52.768Z,96131.41
2023-09-12T07:41:24.562Z,96131.06
2023-09-12T07:42:57.394Z,96136.47
2023-09-12T07:44:29.744Z,96135.28
2023-09-12T07:46:01.608Z,96143.34
2023-09-12T07:47:33.960Z,96139.84
2023-09-12T07:49:06.069Z,96138.25
2023-09-12T07:50:39.651Z,96138.06
2023-09-12T07:52:12.767Z,96139.50
2023-09-12T07:53:45.271Z,96146.31
2023-09-12T07:55:17.393Z,96142.91
2023-09-12T07:56:49.096Z,96146.09
2023-09-12T07:58:21.643Z,96151.38
2023-09-12T07:59:53.287Z,96149.34
2023-09-12T08:01:25.106Z,96145.44
2023-09-12T08:02:57.372Z,96152.38
2023-09-12T08:04:30.228Z,96144.44
2023-09-12T08:06:01.909Z,96147.44
2023-09-12T08:07:35.080Z,96149.66
2023-09-12T08:09:07.141Z,96154.25
2023-09-12T08:10:39.180Z,96157.31
2023-09-12T08:12:11.105Z,96151.84
2023-09-12T08:13:43.205Z,96146.34
2023-09-12T08:15:15.041Z,96143.66
2023-09-12T08:16:46.777Z,96142.00
2023-09-12T08:18:18.442Z,96148.53
2023-09-12T08:19:50.355Z,96142.97
2023-09-12T08:21:22.497Z,96155.28
2023-09-12T08:22:55.647Z,96143.66
2023-09-12T08:24:27.302Z,96156.88
2023-09-12T08:25:59.150Z,96152.72
2023-09-12T08:27:30.930Z,96157.38
2023-09-12T08:29:02.574Z,96157.38
2023-09-12T08:30:34.499Z,96155.78
2023-09-12T08:32:06.470Z,96153.28
2023-09-12T08:33:38.496Z,96156.69
2023-09-12T08:35:10.642Z,96153.00
2023-09-12T08:36:42.410Z,96158.34
2023-09-12T08:38:15.439Z,96155.16
2023-09-12T08:39:47.427Z,96156.41
2023-09-12T08:41:19.983Z,96151.00
2023-09-12T08:42:51.813Z,96154.00
2023-09-12T08:44:23.842Z,96154.44
2023-09-12T08:45:56.125Z,96154.19
2023-09-12T08:47:27.959Z,96153.03
2023-09-12T08:49:00.160Z,96153.72
2023-09-12T08:50:34.353Z,96162.41
2023-09-12T08:52:06.394Z,96159.81
2023-09-12T08:53:39.363Z,96161.84
2023-09-12T08:55:11.142Z,96163.03
2023-09-12T08:56:43.541Z,96163.69
2023-09-12T08:58:15.192Z,96161.66
2023-09-12T08:59:48.690Z,96153.97
2023-09-12T09:01:20.402Z,96153.78
2023-09-12T09:02:52.172Z,96154.47
2023-09-12T09:04:23.925Z,96142.75
2023-09-12T09:05:55.937Z,96144.81
2023-09-12T09:07:27.827Z,96149.72
2023-09-12T09:09:01.743Z,96145.00
2023-09-12T09:12:22.206Z,96137.41
2023-09-12T09:13:53.924Z,96141.44
2023-09-12T09:15:27.130Z,96137.81
2023-09-12T09:16:59.287Z,96140.13
2023-09-12T09:18:30.992Z,96139.97
2023-09-12T09:20:02.992Z,96142.19
2023-09-12T09:21:34.690Z,96138.66
2023-09-12T09:23:07.303Z,96137.38
2023-09-12T09:24:40.350Z,96145.47
2023-09-12T09:26:12.048Z,96136.06
2023-09-12T09:27:43.781Z,96135.72
2023-09-12T09:29:16.230Z,96134.34
2023-09-12T09:30:48.796Z,96132.16
2023-09-12T09:32:23.613Z,96131.06
2023-09-12T09:33:55.807Z,96139.97
2023-09-12T09:35:27.552Z,96134.22
2023-09-12T09:36:59.312Z,96126.63
2023-09-12T09:38:31.408Z,96133.28
2023-09-12T09:40:06.305Z,96128.28
2023-09-12T09:41:38.265Z,96121.66
2023-09-12T09:43:10.107Z,96117.59
2023-09-12T09:44:42.119Z,96119.47
2023-09-12T09:46:16.602Z,96113.69
2023-09-12T09:47:50.333Z,96118.75
2023-09-12T09:49:22.572Z,96114.28
2023-09-12T09:50:54.430Z,96112.19
2023-09-12T09:52:29.123Z,96112.19
2023-09-12T09:54:01.910Z,96114.00
2023-09-12T09:55:36.857Z,96108.47
2023-09-12T09:57:08.500Z,96110.13
2023-09-12T09:58:46.893Z,96117.84
2023-09-12T10:00:19.768Z,96110.59
2023-09-12T10:01:53.305Z,96105.88
2023-09-12T10:03:25.272Z,96105.00
2023-09-12T10:06:31.490Z,96097.66
2023-09-12T10:08:03.894Z,96098.56
2023-09-12T10:09:35.593Z,96096.28
2023-09-12T10:11:08.612Z,96098.34
2023-09-12T10:12:43.184Z,96094.78
2023-09-12T10:14:16.808Z,96095.25
2023-09-12T10:15:48.578Z,96091.78
2023-09-12T10:17:20.223Z,96087.00
2023-09-12T10:18:58.067Z,96090.59
2023-09-12T10:20:33.669Z,96089.84
2023-09-12T10:22:08.216Z,96101.09
2023-09-12T10:23:43.634Z,96091.69
2023-09-12T10:25:15.717Z,96096.72
2023-09-12T10:26:49.092Z,96102.50
2023-09-12T10:28:20.782Z,96094.09
2023-09-12T10:29:54.565Z,96092.25
2023-09-12T10:31:26.439Z,96094.19
2023-09-12T10:32:58.272Z,96086.47
2023-09-12T10:34:31.219Z,96091.03
2023-09-12T10:36:03.944Z,96090.94
2023-09-12T10:37:36.003Z,96092.13
2023-09-12T10:39:08.016Z,96084.53
2023-09-12T10:40:43.564Z,96087.97
2023-09-12T10:42:17.965Z,96085.38
2023-09-12T10:43:52.069Z,96080.91
2023-09-12T10:45:23.711Z,96078.78
2023-09-12T10:48:27.309Z,96084.94
2023-09-12T10:49:59.010Z,96079.16
2023-09-12T10:51:30.705Z,96079.91
2023-09-12T10:53:11.647Z,96076.56
2023-09-12T10:54:43.556Z,96087.66
2023-09-12T10:56:16.961Z,96080.22
2023-09-12T10:58:06.210Z,96073.84
2023-09-12T10:59:37.963Z,96069.75
2023-09-12T11:01:25.845Z,96073.22
2023-09-12T11:02:57.606Z,96078.84
2023-09-12T11:04:34.719Z,96070.41
2023-09-12T11:06:06.956Z,96077.34
2023-09-12T11:07:45.770Z,96068.22
2023-09-12T11:09:18.730Z,96065.22
2023-09-12T11:11:21.212Z,96063.69
2023-09-12T11:12:53.584Z,96064.31
2023-09-12T11:14:27.439Z,96060.66
2023-09-12T11:16:11.679Z,96059.59
2023-09-12T11:17:43.440Z,96059.59
2023-09-12T11:19:19.651Z,96053.06
2023-09-12T11:21:00.408Z,96057.59
2023-09-12T11:22:32.888Z,96050.13
2023-09-12T11:24:05.155Z,96053.81
2023-09-12T11:25:36.933Z,96052.31
2023-09-12T11:27:09.238Z,96052.16
2023-09-12T11:28:43.575Z,96053.28
2023-09-12T11:30:16.925Z,96051.19
2023-09-12T11:31:54.963Z,96050.13
2023-09-12T11:33:27.403Z,96042.69
2023-09-12T11:34:59.512Z,96046.25
2023-09-12T11:36:31.259Z,96044.53
2023-09-12T11:38:04.944Z,96043.16
2023-09-12T11:39:37.276Z,96034.69
2023-09-12T11:41:09.082Z,96016.66
2023-09-12T11:42:41.011Z,96017.13
2023-09-12T11:44:12.724Z,96022.25
2023-09-12T11:45:46.511Z,96020.59
2023-09-12T11:47:18.234Z,96025.06
2023-09-12T11:48:51.016Z,96022.66
2023-09-12T11:50:30.221Z,96020.81
2023-09-12T11:52:01.890Z,96022.81
2023-09-12T11:53:36.438Z,96023.72
2023-09-12T11:55:08.355Z,96022.28
2023-09-12T11:56:40.161Z,96018.44
2023-09-12T11:58:12.539Z,96020.91
2023-09-12T11:59:48.100Z,96016.47
2023-09-12T12:01:21.194Z,96017.66
2023-09-12T12:02:53.076Z,96020.31
2023-09-12T12:04:26.681Z,96024.56
2023-09-12T12:05:58.625Z,96018.59
2023-09-12T12:07:30.355Z,96021.72
2023-09-12T12:09:02.208Z,96013.94
2023-09-12T12:10:34.126Z,96015.66
2023-09-12T12:12:10.350Z,96010.25
2023-09-12T12:13:42.309Z,96008.16
2023-09-12T12:15:14.273Z,96004.72
2023-09-12T12:16:47.659Z,96007.06
2023-09-12T12:18:19.421Z,95997.22
2023-09-12T12:19:51.187Z,95997.75
2023-09-12T12:21:22.892Z,95995.44
2023-09-12T12:22:54.515Z,95988.03
2023-09-12T12:24:26.339Z,95990.25
2023-09-12T12:25:57.979Z,95987.66
2023-09-12T12:27:29.629Z,95991.66
2023-09-12T12:29:01.823Z,95991.91
2023-09-12T12:30:34.052Z,95995.63
2023-09-12T12:32:07.515Z,95992.84
2023-09-12T12:34:39.218Z,95980.75
2023-09-12T12:35:50.713Z,95991.75
2023-09-12T12:37:31.460Z,95977.63
2023-09-12T12:39:03.391Z,95982.41
2023-09-12T12:40:44.681Z,95972.16
2023-09-12T12:42:18.378Z,95973.84
2023-09-12T12:43:51.044Z,95971.22
2023-09-12T12:45:23.375Z,95972.53
2023-09-12T12:46:55.322Z,95966.84
2023-09-12T12:48:32.314Z,95970.56
2023-09-12T12:50:06.201Z,95969.91
2023-09-12T12:51:38.012Z,95968.25
2023-09-12T12:53:09.636Z,95964.97
2023-09-12T12:54:48.364Z,95977.75
2023-09-12T12:56:20.707Z,95972.66
2023-09-12T12:57:52.547Z,95972.25
2023-09-12T12:59:24.328Z,95969.22
2023-09-12T13:00:56.047Z,95968.53
2023-09-12T13:02:27.731Z,95962.06
2023-09-12T13:04:00.959Z,95958.88
2023-09-12T13:05:33.498Z,95967.78
2023-09-12T13:07:05.317Z,95960.63
2023-09-12T13:08:36.988Z,95958.72
2023-09-12T13:10:09.696Z,95961.63
2023-09-12T13:11:41.317Z,95958.88
2023-09-12T13:13:13.021Z,95959.28
2023-09-12T13:14:45.160Z,95950.75
2023-09-12T13:16:16.930Z,95955.41
2023-09-12T13:17:48.747Z,95954.00
2023-09-12T13:19:21.836Z,95953.88
2023-09-12T13:20:53.469Z,95951.50
2023-09-12T13:22:25.187Z,95957.00
2023-09-12T13:23:56.798Z,95947.25
2023-09-12T13:25:28.550Z,95945.25
2023-09-12T13:27:00.250Z,95938.94
2023-09-12T13:28:31.852Z,95943.72
2023-09-12T13:30:05.682Z,95938.00
2023-09-12T13:31:37.340Z,95952.06
2023-09-12T13:33:09.253Z,95948.88
2023-09-12T13:34:42.233Z,95951.28
2023-09-12T13:36:14.040Z,95951.16
2023-09-12T13:37:45.715Z,95948.22
2023-09-12T13:39:18.517Z,95955.31
2023-09-12T13:40:50.129Z,95956.53
2023-09-12T13:42:22.207Z,95952.69
2023-09-12T13:43:54.035Z,95958.91
2023-09-12T13:45:25.703Z,95960.47
2023-09-12T13:46:57.396Z,95960.88
2023-09-12T13:48:29.258Z,95955.13
2023-09-12T13:50:02.331Z,95952.47
2023-09-12T13:51:34.107Z,95953.81
2023-09-12T13:53:07.648Z,95945.22
2023-09-12T13:54:39.462Z,95946.75
2023-09-12T13:56:11.062Z,95949.00
2023-09-12T13:57:50.213Z,95949.19
2023-09-12T13:59:24.568Z,95947.06
2023-09-12T14:00:57.149Z,95950.00
2023-09-12T14:02:29.056Z,95957.63
2023-09-12T14:04:02.532Z,95951.69
2023-09-12T14:05:36.221Z,95950.63
2023-09-12T14:07:08.588Z,95949.88
2023-09-12T14:08:40.564Z,95946.81
2023-09-12T14:10:18.122Z,95955.19
2023-09-12T14:11:55.165Z,95946.06
2023-09-12T14:13:27.016Z,95953.06
2023-09-12T14:15:06.220Z,95954.13
2023-09-12T14:16:40.363Z,95958.22
2023-09-12T14:18:13.939Z,95964.88
2023-09-12T14:19:46.747Z,95969.59
2023-09-12T14:21:19.904Z,95974.00
2023-09-12T14:22:51.660Z,95975.22
2023-09-12T14:24:24.005Z,95972.50
2023-09-12T14:25:57.061Z,95975.69
2023-09-12T14:27:30.277Z,95984.03
2023-09-12T14:29:03.143Z,96007.41
2023-09-12T14:30:37.064Z,96018.34
2023-09-12T14:32:08.936Z,96025.47
2023-09-12T14:33:40.568Z,96036.78
2023-09-12T14:35:12.598Z,96030.22
2023-09-12T14:36:47.239Z,96044.78
2023-09-12T14:38:19.029Z,96053.38
2023-09-12T14:39:50.734Z,96053.25
2023-09-12T14:41:22.508Z,96053.63
2023-09-12T14:42:54.710Z,96053.00
2023-09-12T14:44:26.508Z,96058.75
2023-09-12T14:45:58.312Z,96071.50
2023-09-12T14:47:31.468Z,96075.63
2023-09-12T14:49:03.817Z,96090.56
2023-09-12T14:50:41.891Z,96091.91
2023-09-12T14:52:24.063Z,96091.34
2023-09-12T14:53:56.705Z,96092.47
2023-09-12T14:55:29.213Z,96101.63
2023-09-12T14:57:00.838Z,96098.09
2023-09-12T14:58:32.448Z,96111.88
2023-09-12T15:00:05.240Z,96082.19
2023-09-12T15:01:38.150Z,96086.44
2023-09-12T15:03:10.297Z,96082.97
2023-09-12T15:04:42.057Z,96081.06
2023-09-12T15:06:13.892Z,96083.41
2023-09-12T15:07:46.981Z,96095.84
2023-09-12T15:09:18.645Z,96102.03
2023-09-12T15:10:50.244Z,96120.31
2023-09-12T15:12:22.681Z,96105.28
2023-09-12T15:13:54.371Z,96108.53
2023-09-12T15:15:26.127Z,96121.88
2023-09-12T15:16:58.194Z,96105.63
2023-09-12T15:18:29.913Z,96085.78
2023-09-12T15:20:02.240Z,96082.94
2023-09-12T15:21:33.931Z,96097.25
2023-09-12T15:23:07.121Z,96092.94
2023-09-12T15:24:38.811Z,96098.88
2023-09-12T15:26:10.743Z,96086.72
2023-09-12T15:27:43.046Z,96083.91
2023-09-12T15:29:15.368Z,96086.00
2023-09-12T15:30:47.115Z,96077.03
2023-09-12T15:32:18.870Z,96076.59
2023-09-12T15:33:50.731Z,96068.03
2023-09-12T15:35:22.400Z,96066.13
2023-09-12T15:37:21.646Z,96054.28
2023-09-12T15:38:57.441Z,96028.94
2023-09-12T15:40:29.073Z,96041.19
2023-09-12T15:42:00.828Z,96040.25
2023-09-12T15:43:32.508Z,96044.81
2023-09-12T15:45:09.802Z,96042.13
2023-09-12T15:46:41.634Z,96042.56
2023-09-12T15:48:13.788Z,96035.72
2023-09-12T15:49:45.904Z,96041.66
2023-09-12T15:51:18.890Z,96035.47
2023-09-12T15:52:50.893Z,96035.47
2023-09-12T15:54:25.236Z,96025.25
2023-09-12T15:55:56.877Z,96019.25
2023-09-12T15:57:28.508Z,96020.00
2023-09-12T15:59:00.375Z,96004.66
2023-09-12T16:00:32.259Z,96001.09
2023-09-12T16:02:04.522Z,95989.03
2023-09-12T16:03:36.292Z,95990.47
2023-09-12T16:05:08.892Z,95998.91
2023-09-12T16:06:51.803Z,96000.38
2023-09-12T16:08:37.025Z,96003.69
2023-09-12T16:10:19.323Z,96008.53
2023-09-12T16:12:25.365Z,95997.31
2023-09-12T16:16:06.294Z,95997.38
2023-09-12T16:17:43.424Z,95998.34
2023-09-12T16:19:15.584Z,95997.31
2023-09-12T16:20:47.271Z,96006.88
2023-09-12T16:22:18.865Z,96010.03
2023-09-12T16:23:53.888Z,96008.50
2023-09-12T16:25:33.432Z,96016.81
2023-09-12T16:27:07.954Z,96013.50
2023-09-12T16:28:39.656Z,96003.34
2023-09-12T16:30:12.131Z,95999.75
2023-09-12T16:31:47.015Z,95996.97
2023-09-12T16:33:19.573Z,96013.19
2023-09-12T16:34:51.628Z,96007.72
2023-09-12T16:36:23.388Z,96015.19
2023-09-12T16:37:55.316Z,96005.31
2023-09-12T16:39:27.042Z,96012.59
2023-09-12T16:41:00.545Z,96019.41
2023-09-12T16:42:36.098Z,96009.97
2023-09-12T16:44:08.023Z,96003.34
2023-09-12T16:45:39.740Z,96003.00
2023-09-12T16:47:12.528Z,96013.72
2023-09-12T16:48:44.320Z,96016.56
2023-09-12T16:50:16.782Z,96024.75
2023-09-12T16:51:48.546Z,96017.44
2023-09-12T16:53:21.484Z,96020.66
2023-09-12T16:54:53.421Z,96024.88
2023-09-12T16:56:26.543Z,96022.09
2023-09-12T16:57:59.311Z,96026.50
2023-09-12T16:59:31.389Z,96043.03
2023-09-12T17:01:03.089Z,96051.22
2023-09-12T17:02:36.512Z,96058.31
2023-09-12T17:04:08.672Z,96058.97
2023-09-12T17:05:45.926Z,96072.53
2023-09-12T17:07:20.071Z,96074.94
2023-09-12T17:08:51.854Z,96084.00
2023-09-12T17:10:23.543Z,96091.56
2023-09-12T17:11:56.646Z,96098.22
2023-09-12T17:13:33.058Z,96104.75
2023-09-12T17:15:05.675Z,96100.50
2023-09-12T17:16:37.460Z,96092.81
2023-09-12T17:18:09.766Z,96089.28
2023-09-12T17:19:41.656Z,96088.34
2023-09-12T17:21:13.367Z,96076.09
2023-09-12T17:22:45.242Z,96080.13
2023-09-12T17:24:17.219Z,96062.75
2023-09-12T17:25:50.062Z,96064.47
2023-09-12T17:27:25.400Z,96052.81
2023-09-12T17:28:57.478Z,96053.78
2023-09-12T17:30:31.457Z,96045.56
2023-09-12T17:32:09.773Z,96053.84
2023-09-12T17:33:42.344Z,96058.78
2023-09-12T17:35:16.292Z,96048.28
2023-09-12T17:36:48.181Z,96048.84
2023-09-12T17:38:22.421Z,96053.28
2023-09-12T17:39:54.276Z,96057.34
2023-09-12T17:41:26.810Z,96052.19
2023-09-12T17:43:00.703Z,96049.66
2023-09-12T17:44:32.587Z,96042.34
2023-09-12T17:46:11.452Z,96049.47
2023-09-12T17:49:28.207Z,96053.72
2023-09-12T17:51:00.153Z,96054.81
2023-09-12T17:52:31.883Z,96059.31
2023-09-12T17:54:03.896Z,96070.03
2023-09-12T17:55:36.905Z,96066.38
2023-09-12T17:57:08.979Z,96073.53
2023-09-12T17:58:42.220Z,96067.19
2023-09-12T18:00:14.232Z,96065.25
2023-09-12T18:01:46.147Z,96074.63
2023-09-12T18:03:19.267Z,96078.69
2023-09-12T18:04:52.202Z,96083.41
2023-09-12T18:08:00.450Z,96097.00
2023-09-12T18:09:32.121Z,96093.88
2023-09-12T18:11:04.830Z,96095.41
2023-09-12T18:12:36.588Z,96094.16
2023-09-12T18:14:09.676Z,96098.63
2023-09-12T18:15:42.214Z,96093.84
2023-09-12T18:19:03.165Z,96103.34
2023-09-12T18:20:34.920Z,96100.09
2023-09-12T18:22:10.708Z,96092.16
2023-09-12T18:23:54.395Z,96092.84